createdAt,value
2023-09-27T01:09:38.316Z,11.75
2023-09-27T01:12:07.295Z,12.07
2023-09-27T01:14:34.788Z,11.02
2023-09-27T01:17:11.767Z,13.43
2023-09-27T01:19:39.933Z,14.03
2023-09-27T01:22:07.048Z,13.48
2023-09-27T01:24:40.043Z,15.23
2023-09-27T01:27:10.567Z,12.57
2023-09-27T01:29:37.647Z,13.88
2023-09-27T01:32:04.714Z,13.87
2023-09-27T01:34:31.670Z,13.90
2023-09-27T01:37:01.315Z,14.90
2023-09-27T01:39:31.572Z,14.82
2023-09-27T01:42:01.171Z,12.80
2023-09-27T01:44:28.147Z,14.90
2023-09-27T01:46:55.308Z,14.75
2023-09-27T01:49:23.229Z,14.52
2023-09-27T01:51:50.527Z,12.75
2023-09-27T01:54:20.844Z,13.40
2023-09-27T01:56:48.807Z,13.77
2023-09-27T01:59:18.735Z,13.88
2023-09-27T02:01:45.786Z,13.80
2023-09-27T02:04:12.764Z,13.68
2023-09-27T02:06:39.658Z,12.95
2023-09-27T02:09:07.020Z,13.63
2023-09-27T02:11:35.169Z,12.52
2023-09-27T02:14:05.314Z,13.32
2023-09-27T02:16:34.480Z,14.13
2023-09-27T02:19:05.346Z,12.57
2023-09-27T02:21:32.317Z,12.57
2023-09-27T02:23:59.275Z,13.80
2023-09-27T02:26:26.503Z,14.18
2023-09-27T02:28:53.892Z,13.25
2023-09-27T02:31:21.087Z,14.65
2023-09-27T02:33:48.108Z,14.10
2023-09-27T02:36:15.138Z,15.25
2023-09-27T02:38:42.018Z,14.55
2023-09-27T02:41:09.295Z,14.32
2023-09-27T02:43:36.405Z,13.60
2023-09-27T02:46:03.398Z,13.57
2023-09-27T02:48:31.069Z,15.23
2023-09-27T02:50:58.524Z,16.30
2023-09-27T02:53:25.637Z,14.32
2023-09-27T02:55:52.877Z,14.23
2023-09-27T02:58:23.495Z,14.27
2023-09-27T03:00:50.683Z,13.05
2023-09-27T03:03:21.409Z,14.30
2023-09-27T03:05:48.568Z,12.77
2023-09-27T03:08:15.497Z,14.15
2023-09-27T03:10:43.975Z,14.13
2023-09-27T03:13:12.193Z,14.18
2023-09-27T03:15:39.297Z,13.95
2023-09-27T03:18:06.855Z,14.73
2023-09-27T03:20:34.392Z,13.65
2023-09-27T03:23:01.566Z,15.70
2023-09-27T03:25:28.436Z,14.95
2023-09-27T03:27:55.811Z,14.57
2023-09-27T03:30:23.987Z,15.93
2023-09-27T03:32:51.090Z,13.95
2023-09-27T03:35:23.364Z,15.77
2023-09-27T03:37:52.042Z,15.25
2023-09-27T03:40:19.398Z,15.75
2023-09-27T03:42:47.565Z,15.88
2023-09-27T03:45:18.618Z,15.55
2023-09-27T03:47:49.545Z,15.10
2023-09-27T03:50:25.308Z,17.13
2023-09-27T03:52:56.580Z,15.70
2023-09-27T03:55:26.154Z,15.30
2023-09-27T03:57:53.447Z,15.13
2023-09-27T04:00:21.833Z,15.23
2023-09-27T04:02:51.330Z,16.40
2023-09-27T04:05:20.261Z,14.90
2023-09-27T04:07:47.930Z,16.08
2023-09-27T04:10:15.016Z,15.02
2023-09-27T04:12:42.076Z,14.57
2023-09-27T04:15:13.707Z,16.25
2023-09-27T04:17:41.061Z,14.93
2023-09-27T04:20:17.773Z,15.32
2023-09-27T04:22:47.103Z,15.65
2023-09-27T04:25:15.468Z,16.97
2023-09-27T04:27:47.555Z,17.10
2023-09-27T04:30:20.609Z,15.75
2023-09-27T04:32:51.582Z,15.65
2023-09-27T04:35:19.255Z,16.75
2023-09-27T04:37:47.248Z,15.50
2023-09-27T04:40:15.372Z,15.07
2023-09-27T04:42:43.411Z,14.73
2023-09-27T04:45:14.389Z,16.42
2023-09-27T04:47:42.512Z,17.60
2023-09-27T04:50:13.268Z,16.40
2023-09-27T04:52:40.973Z,17.88
2023-09-27T04:55:10.123Z,15.32
2023-09-27T04:57:37.701Z,16.35
2023-09-27T05:00:07.547Z,17.05
2023-09-27T05:02:34.530Z,17.07
2023-09-27T05:05:01.530Z,16.20
2023-09-27T05:07:28.490Z,16.77
2023-09-27T05:09:55.475Z,17.30
2023-09-27T05:12:22.399Z,17.58
2023-09-27T05:14:49.371Z,18.43
2023-09-27T05:17:16.426Z,18.67
2023-09-27T05:19:43.439Z,19.58
2023-09-27T05:22:10.385Z,20.15
2023-09-27T05:24:40.194Z,21.00
2023-09-27T05:27:08.607Z,21.60
2023-09-27T05:29:36.196Z,22.08
2023-09-27T05:32:03.978Z,20.77
2023-09-27T05:34:35.229Z,18.95
2023-09-27T05:37:02.845Z,20.83
2023-09-27T05:39:29.817Z,17.67
2023-09-27T05:41:56.673Z,18.60
2023-09-27T05:44:23.526Z,17.73
2023-09-27T05:46:50.447Z,19.88
2023-09-27T05:49:18.106Z,18.27
2023-09-27T05:51:45.090Z,19.93
2023-09-27T05:54:12.146Z,19.98
2023-09-27T05:56:39.341Z,19.65
2023-09-27T05:59:10.414Z,20.15
2023-09-27T06:01:37.453Z,19.27
2023-09-27T06:04:05.382Z,18.40
2023-09-27T06:06:32.342Z,18.55
2023-09-27T06:08:59.781Z,18.48
2023-09-27T06:11:27.174Z,18.92
2023-09-27T06:13:54.790Z,19.73
2023-09-27T06:16:22.907Z,18.47
2023-09-27T06:18:50.661Z,19.20
2023-09-27T06:21:17.999Z,19.58
2023-09-27T06:23:46.052Z,19.08
2023-09-27T06:26:13.921Z,17.83
2023-09-27T06:28:41.470Z,16.67
2023-09-27T06:31:08.766Z,17.33
2023-09-27T06:33:40.362Z,16.45
2023-09-27T06:36:12.937Z,16.60
2023-09-27T06:38:40.912Z,17.25
2023-09-27T06:41:10.071Z,17.63
2023-09-27T06:43:37.149Z,17.88
2023-09-27T06:46:11.530Z,16.67
2023-09-27T06:48:39.269Z,16.63
2023-09-27T06:51:07.112Z,16.65
2023-09-27T06:53:34.752Z,16.30
2023-09-27T06:56:05.015Z,18.73
2023-09-27T06:58:38.241Z,16.85
2023-09-27T07:01:05.598Z,17.60
2023-09-27T07:03:38.048Z,18.05
2023-09-27T07:06:05.130Z,17.77
2023-09-27T07:08:34.864Z,18.17
2023-09-27T07:11:10.271Z,16.67
2023-09-27T07:13:41.083Z,17.73
2023-09-27T07:16:38.097Z,16.70
2023-09-27T07:19:14.702Z,16.60
2023-09-27T07:21:41.925Z,15.75
2023-09-27T07:24:11.025Z,16.58
2023-09-27T07:26:42.616Z,15.32
2023-09-27T07:29:10.689Z,15.05
2023-09-27T07:31:37.669Z,16.20
2023-09-27T07:34:04.719Z,16.10
2023-09-27T07:36:31.919Z,16.48
2023-09-27T07:38:59.620Z,16.30
2023-09-27T07:41:27.476Z,17.00
2023-09-27T07:43:54.987Z,17.67
2023-09-27T07:46:23.136Z,17.05
2023-09-27T07:48:50.279Z,18.23
2023-09-27T07:51:19.514Z,18.98
2023-09-27T07:53:47.098Z,18.98
2023-09-27T07:56:26.905Z,18.73
2023-09-27T07:58:55.554Z,18.70
2023-09-27T08:01:23.787Z,18.80
2023-09-27T08:03:54.119Z,18.17
2023-09-27T08:06:22.140Z,19.05
2023-09-27T08:08:49.322Z,18.93
2023-09-27T08:11:19.072Z,19.35
2023-09-27T08:13:46.094Z,19.67
2023-09-27T08:16:18.848Z,18.48
2023-09-27T08:18:45.719Z,18.77
2023-09-27T08:21:12.745Z,18.40
2023-09-27T08:23:41.474Z,17.85
2023-09-27T08:26:13.785Z,17.17
2023-09-27T08:28:41.379Z,15.35
2023-09-27T08:31:08.298Z,15.38
2023-09-27T08:33:35.423Z,16.77
2023-09-27T08:36:02.529Z,17.20
2023-09-27T08:38:29.696Z,17.00
2023-09-27T08:40:56.563Z,16.77
2023-09-27T08:43:26.701Z,15.82
2023-09-27T08:45:54.935Z,17.00
2023-09-27T08:48:25.286Z,16.13
2023-09-27T08:50:52.767Z,16.88
2023-09-27T08:53:19.780Z,15.98
2023-09-27T08:55:54.368Z,16.15
2023-09-27T08:58:26.329Z,15.13
2023-09-27T09:00:54.689Z,14.38
2023-09-27T09:03:24.935Z,16.98
2023-09-27T09:05:52.450Z,15.05
2023-09-27T09:08:33.418Z,16.42
2023-09-27T09:11:11.392Z,17.40
2023-09-27T09:14:05.915Z,16.48
2023-09-27T09:16:48.810Z,17.90
2023-09-27T09:19:41.810Z,16.25
2023-09-27T09:22:12.712Z,16.13
2023-09-27T09:24:45.280Z,17.50
2023-09-27T09:27:16.346Z,18.70
2023-09-27T09:29:51.957Z,16.63
2023-09-27T09:32:24.728Z,16.60
2023-09-27T09:34:54.742Z,16.73
2023-09-27T09:37:23.653Z,16.00
2023-09-27T09:39:54.026Z,16.15
2023-09-27T09:42:33.040Z,15.00
2023-09-27T09:45:08.266Z,13.77
2023-09-27T09:47:39.002Z,14.68
2023-09-27T09:50:07.741Z,13.77
2023-09-27T09:52:39.271Z,14.55
2023-09-27T09:57:53.269Z,13.75
2023-09-27T10:00:27.148Z,14.48
2023-09-27T10:03:05.910Z,14.33
2023-09-27T10:05:39.232Z,13.63
2023-09-27T10:08:07.730Z,13.38
2023-09-27T10:10:36.168Z,14.23
2023-09-27T10:13:06.733Z,14.27
2023-09-27T10:15:36.960Z,15.43
2023-09-27T10:18:22.957Z,16.02
2023-09-27T10:21:14.119Z,17.08
2023-09-27T10:23:47.908Z,17.65
2023-09-27T10:26:35.367Z,17.92
2023-09-27T10:29:08.354Z,17.30
2023-09-27T10:31:39.022Z,19.27
2023-09-27T10:34:31.819Z,17.35
2023-09-27T10:37:17.312Z,18.65
2023-09-27T10:40:20.341Z,19.23
2023-09-27T10:42:47.631Z,18.47
2023-09-27T10:45:14.761Z,18.23
2023-09-27T10:47:42.041Z,18.05
2023-09-27T10:50:10.524Z,17.83
2023-09-27T10:52:38.546Z,16.55
2023-09-27T10:55:13.599Z,16.50
2023-09-27T10:57:41.970Z,16.15
2023-09-27T11:00:12.461Z,16.33
2023-09-27T11:02:39.811Z,16.05
2023-09-27T11:05:09.615Z,15.63
2023-09-27T11:07:48.263Z,14.87
2023-09-27T11:10:39.352Z,15.07
2023-09-27T11:13:10.904Z,13.85
2023-09-27T11:15:39.254Z,14.93
2023-09-27T11:18:08.647Z,13.60
2023-09-27T11:20:36.278Z,13.63
2023-09-27T11:23:04.049Z,14.07
2023-09-27T11:25:33.135Z,13.05
2023-09-27T11:28:00.328Z,12.52
2023-09-27T11:30:34.155Z,11.88
2023-09-27T11:33:09.439Z,11.27
2023-09-27T11:35:37.090Z,11.27
2023-09-27T11:38:10.619Z,11.30
2023-09-27T11:40:39.517Z,10.70
2023-09-27T11:43:07.051Z,10.93
2023-09-27T11:46:04.990Z,10.40
2023-09-27T11:48:35.884Z,9.80
2023-09-27T11:51:03.905Z,10.13
2023-09-27T11:53:31.597Z,10.98
2023-09-27T11:56:00.599Z,10.57
2023-09-27T11:58:27.904Z,10.43
2023-09-27T12:00:54.788Z,10.82
2023-09-27T12:03:21.919Z,11.05
2023-09-27T12:05:49.788Z,10.32
2023-09-27T12:08:17.091Z,9.82
2023-09-27T12:10:44.187Z,8.93
2023-09-27T12:13:11.092Z,10.02
2023-09-27T12:15:38.072Z,10.15
2023-09-27T12:18:05.777Z,11.32
2023-09-27T12:23:04.104Z,11.23
2023-09-27T12:25:32.853Z,10.52
2023-09-27T12:28:00.043Z,10.27
2023-09-27T12:30:29.197Z,11.05
2023-09-27T12:32:56.868Z,10.75
2023-09-27T12:35:24.202Z,10.17
2023-09-27T12:37:51.308Z,11.05
2023-09-27T12:40:18.466Z,10.32
2023-09-27T12:42:45.404Z,10.35
2023-09-27T12:45:16.185Z,11.30
2023-09-27T12:47:43.389Z,11.80
2023-09-27T12:50:11.028Z,11.55
2023-09-27T12:52:38.472Z,9.73
2023-09-27T12:55:06.601Z,9.43
2023-09-27T12:57:34.030Z,8.98
2023-09-27T13:00:01.316Z,8.40
2023-09-27T13:02:28.699Z,8.65
2023-09-27T13:04:55.845Z,8.35
2023-09-27T13:07:22.981Z,10.02
2023-09-27T13:09:50.966Z,9.32
2023-09-27T13:12:19.010Z,8.23
2023-09-27T13:14:46.348Z,9.60
2023-09-27T13:17:13.503Z,13.80
2023-09-27T13:19:41.020Z,10.13
2023-09-27T13:22:07.912Z,9.65
2023-09-27T13:24:34.873Z,10.20
2023-09-27T13:27:01.914Z,9.18
2023-09-27T13:29:29.056Z,7.97
2023-09-27T13:31:58.221Z,9.32
2023-09-27T13:34:25.195Z,8.65
2023-09-27T13:36:52.104Z,9.30
2023-09-27T13:39:19.023Z,8.65
2023-09-27T13:41:47.424Z,8.55
2023-09-27T13:47:09.379Z,8.40
2023-09-27T13:49:36.483Z,7.70
2023-09-27T13:52:05.716Z,7.47
2023-09-27T13:54:33.293Z,7.07
2023-09-27T13:57:00.200Z,8.48
2023-09-27T13:59:27.934Z,8.82
2023-09-27T14:01:55.056Z,8.23
2023-09-27T14:04:21.944Z,8.75
2023-09-27T14:06:51.251Z,8.27
2023-09-27T14:09:18.280Z,8.15
2023-09-27T14:11:45.330Z,9.00
2023-09-27T14:14:14.511Z,8.43
2023-09-27T14:16:42.391Z,8.23
2023-09-27T14:19:09.488Z,8.00
2023-09-27T14:21:36.544Z,7.85
2023-09-27T14:24:04.179Z,7.65
2023-09-27T14:26:31.512Z,8.47
2023-09-27T14:28:58.453Z,9.00
2023-09-27T14:31:29.577Z,9.25
2023-09-27T14:34:01.947Z,9.45
2023-09-27T14:36:29.916Z,9.18
2023-09-27T14:39:00.131Z,9.97
2023-09-27T14:41:30.194Z,9.48
2023-09-27T14:44:00.817Z,8.57
2023-09-27T14:46:27.857Z,8.93
2023-09-27T14:48:55.017Z,8.50
2023-09-27T14:51:21.882Z,8.30
2023-09-27T14:53:48.813Z,7.57
2023-09-27T14:56:18.176Z,7.10
2023-09-27T14:58:47.630Z,8.23
2023-09-27T15:01:17.095Z,8.07
2023-09-27T15:03:44.037Z,7.63
2023-09-27T15:06:11.672Z,7.68
2023-09-27T15:08:38.812Z,8.55
2023-09-27T15:11:05.662Z,7.57
2023-09-27T15:13:32.673Z,8.88
2023-09-27T15:16:00.744Z,8.33
2023-09-27T15:18:27.755Z,8.00
2023-09-27T15:20:54.869Z,7.63
2023-09-27T15:23:24.499Z,8.43
2023-09-27T15:25:59.695Z,8.85
2023-09-27T15:28:26.640Z,9.17
2023-09-27T15:30:54.169Z,8.90
2023-09-27T15:33:24.328Z,9.80
2023-09-27T15:35:57.659Z,12.13
2023-09-27T15:38:28.050Z,10.25
2023-09-27T15:40:55.650Z,10.43
2023-09-27T15:43:22.699Z,9.75
2023-09-27T15:46:04.286Z,10.73
2023-09-27T15:48:35.614Z,11.45
2023-09-27T15:51:08.164Z,10.43
2023-09-27T15:53:36.156Z,10.37
2023-09-27T15:56:05.165Z,10.15
2023-09-27T15:58:33.447Z,10.20
2023-09-27T16:01:04.983Z,9.88
2023-09-27T16:03:32.540Z,10.50
2023-09-27T16:06:01.782Z,11.40
2023-09-27T16:08:31.603Z,12.07
2023-09-27T16:10:58.705Z,11.52
2023-09-27T16:13:26.350Z,11.75
2023-09-27T16:15:55.541Z,12.45
2023-09-27T16:18:23.019Z,12.30
2023-09-27T16:20:50.245Z,13.15
2023-09-27T16:23:17.883Z,12.23
2023-09-27T16:25:46.667Z,12.80
2023-09-27T16:28:19.867Z,13.90
2023-09-27T16:30:47.744Z,13.90
2023-09-27T16:33:17.478Z,13.75
2023-09-27T16:35:44.608Z,13.15
2023-09-27T16:38:11.429Z,13.07
2023-09-27T16:40:40.155Z,13.40
2023-09-27T16:43:07.524Z,13.87
2023-09-27T16:45:36.364Z,13.55
2023-09-27T16:48:03.878Z,14.02
2023-09-27T16:50:31.008Z,14.27
2023-09-27T16:53:01.175Z,14.95
2023-09-27T16:55:28.231Z,13.40
2023-09-27T16:57:56.236Z,15.23
2023-09-27T17:00:28.737Z,15.15
2023-09-27T17:02:58.299Z,15.05
2023-09-27T17:05:25.800Z,15.10
2023-09-27T17:07:52.633Z,13.50
2023-09-27T17:10:19.684Z,14.60
2023-09-27T17:12:46.593Z,14.50
2023-09-27T17:15:13.632Z,14.93
2023-09-27T17:17:40.529Z,13.77
2023-09-27T17:20:11.492Z,13.77
2023-09-27T17:22:38.761Z,13.48
2023-09-27T17:25:10.669Z,14.07
2023-09-27T17:27:38.363Z,13.65
2023-09-27T17:30:09.668Z,14.75
2023-09-27T17:32:38.700Z,13.50
2023-09-27T17:35:06.396Z,12.25
2023-09-27T17:37:33.847Z,13.85
2023-09-27T17:40:04.746Z,12.95
2023-09-27T17:42:31.629Z,12.95
2023-09-27T17:44:58.678Z,13.60
2023-09-27T17:47:25.675Z,14.50
2023-09-27T17:49:52.753Z,13.50
2023-09-27T17:52:19.868Z,13.43
2023-09-27T17:54:47.144Z,12.30
2023-09-27T17:57:20.518Z,13.53
2023-09-27T17:59:48.786Z,14.20
2023-09-27T18:02:16.404Z,13.85
2023-09-27T18:04:46.395Z,12.48
2023-09-27T18:07:13.769Z,12.88
2023-09-27T18:09:44.349Z,12.63
2023-09-27T18:12:16.166Z,13.90
2023-09-27T18:14:44.697Z,12.95
2023-09-27T18:17:15.287Z,14.20
2023-09-27T18:19:42.390Z,12.65
2023-09-27T18:22:09.693Z,12.70
2023-09-27T18:24:37.277Z,12.88
2023-09-27T18:27:04.457Z,12.27
2023-09-27T18:29:34.358Z,12.65
2023-09-27T18:32:01.556Z,12.80
2023-09-27T18:34:29.063Z,13.97
2023-09-27T18:36:56.111Z,12.70
2023-09-27T18:39:23.741Z,11.32
2023-09-27T18:41:50.916Z,13.80
2023-09-27T18:44:21.823Z,13.57
2023-09-27T18:46:51.244Z,13.40
2023-09-27T18:49:21.269Z,13.43
2023-09-27T18:51:48.431Z,14.18
2023-09-27T18:54:15.565Z,13.80
2023-09-27T18:56:43.398Z,14.55
2023-09-27T18:59:10.999Z,13.93
2023-09-27T19:01:38.010Z,13.65
2023-09-27T19:04:05.131Z,13.50
2023-09-27T19:06:32.203Z,13.77
2023-09-27T19:09:01.872Z,13.10
2023-09-27T19:11:31.232Z,13.47
2023-09-27T19:13:58.409Z,13.45
2023-09-27T19:16:32.645Z,12.55
2023-09-27T19:19:02.561Z,14.15
2023-09-27T19:21:30.577Z,12.85
2023-09-27T19:23:57.774Z,13.60
2023-09-27T19:26:25.018Z,15.18
2023-09-27T19:28:52.835Z,13.20
2023-09-27T19:31:20.100Z,13.63
2023-09-27T19:33:48.572Z,14.38
2023-09-27T19:36:19.311Z,13.80
2023-09-27T19:38:49.786Z,13.85
2023-09-27T19:41:16.940Z,13.60
2023-09-27T19:43:44.460Z,13.27
2023-09-27T19:46:12.403Z,12.68
2023-09-27T19:48:43.477Z,13.00
2023-09-27T19:51:19.949Z,13.15
2023-09-27T19:53:49.249Z,13.75
2023-09-27T19:56:16.204Z,13.70
2023-09-27T19:58:43.210Z,13.95
2023-09-27T20:01:10.525Z,13.63
2023-09-27T20:03:40.591Z,14.60
2023-09-27T20:06:07.693Z,13.27
2023-09-27T20:08:40.927Z,14.73
2023-09-27T20:11:25.989Z,14.45
2023-09-27T20:14:01.707Z,15.07
2023-09-27T20:16:37.146Z,14.98
2023-09-27T20:19:06.220Z,14.38
2023-09-27T20:21:36.349Z,16.20
2023-09-27T20:24:05.351Z,14.63
2023-09-27T20:26:32.436Z,14.73
2023-09-27T20:28:59.437Z,13.60
2023-09-27T20:31:26.518Z,13.90
2023-09-27T20:33:53.778Z,14.00
2023-09-27T20:36:20.903Z,13.82
2023-09-27T20:38:47.744Z,14.63
2023-09-27T20:41:21.290Z,15.35
2023-09-27T20:43:48.269Z,14.32
2023-09-27T20:46:16.474Z,13.90
2023-09-27T20:48:44.848Z,14.32
2023-09-27T20:51:12.089Z,13.47
2023-09-27T20:53:40.520Z,14.20
2023-09-27T20:56:08.712Z,13.73
2023-09-27T20:58:36.694Z,13.75
2023-09-27T21:01:08.323Z,13.45
2023-09-27T21:03:36.760Z,14.13
2023-09-27T21:06:05.118Z,15.60
2023-09-27T21:08:33.049Z,12.90
2023-09-27T21:10:59.863Z,13.85
2023-09-27T21:13:26.831Z,13.35
2023-09-27T21:15:56.240Z,12.23
2023-09-27T21:18:23.204Z,11.18
2023-09-27T21:20:50.036Z,12.50
2023-09-27T21:23:16.956Z,11.68
2023-09-27T21:25:43.873Z,11.27
2023-09-27T21:28:10.881Z,11.03
2023-09-27T21:30:38.586Z,10.32
2023-09-27T21:33:09.676Z,10.43
2023-09-27T21:35:36.510Z,10.10
2023-09-27T21:38:05.143Z,10.70
2023-09-27T21:40:32.038Z,9.20
2023-09-27T21:42:59.130Z,9.52
2023-09-27T21:45:26.781Z,10.18
2023-09-27T21:47:54.237Z,9.55
2023-09-27T21:50:21.159Z,8.85
2023-09-27T21:52:48.222Z,9.13
2023-09-27T21:55:15.170Z,9.63
2023-09-27T21:57:42.109Z,8.85
2023-09-27T22:00:20.836Z,8.18
2023-09-27T22:02:48.274Z,8.57
2023-09-27T22:05:15.324Z,7.37
2023-09-27T22:07:45.552Z,7.95
2023-09-27T22:10:12.593Z,7.25
2023-09-27T22:12:40.173Z,7.25
2023-09-27T22:15:10.648Z,6.97
2023-09-27T22:17:39.008Z,7.33
2023-09-27T22:20:13.839Z,7.00
2023-09-27T22:22:41.425Z,6.88
2023-09-27T22:25:15.758Z,6.30
2023-09-27T22:27:52.384Z,6.93
2023-09-27T22:30:19.824Z,6.87
2023-09-27T22:32:46.763Z,7.32
2023-09-27T22:35:28.472Z,6.40
2023-09-27T22:37:57.269Z,7.00
2023-09-27T22:40:24.745Z,6.13
2023-09-27T22:42:59.015Z,5.27
2023-09-27T22:45:38.236Z,5.63
2023-09-27T22:48:05.536Z,6.20
2023-09-27T22:50:45.604Z,6.40
2023-09-27T22:53:17.141Z,5.75
2023-09-27T22:55:59.088Z,5.80
2023-09-27T22:58:30.486Z,6.22
2023-09-27T23:01:00.561Z,5.28
2023-09-27T23:03:31.677Z,5.53
2023-09-27T23:05:59.041Z,5.72
2023-09-27T23:08:29.010Z,5.70
2023-09-27T23:10:58.033Z,5.88
2023-09-27T23:13:29.964Z,5.35
2023-09-27T23:15:58.278Z,5.72
2023-09-27T23:18:30.960Z,5.35
2023-09-27T23:23:49.335Z,5.78
2023-09-27T23:26:37.223Z,4.70
2023-09-27T23:29:23.231Z,5.50
2023-09-27T23:31:50.116Z,5.13
2023-09-27T23:34:22.245Z,5.37
2023-09-27T23:36:50.721Z,5.70
2023-09-27T23:39:23.129Z,5.60
2023-09-27T23:42:02.724Z,5.22
2023-09-27T23:44:29.689Z,5.55
2023-09-27T23:46:58.944Z,6.23
2023-09-27T23:49:25.828Z,5.65
2023-09-27T23:51:55.068Z,4.80
2023-09-27T23:54:22.335Z,5.15
2023-09-27T23:57:00.079Z,4.97
2023-09-27T23:59:31.395Z,4.80
